sensor_id;sensor_type;location;lat;lon;timestamp;P1;durP1;ratioP1;P2;durP2;ratioP2
10721;SDS011;5412;59.450;18.124;2022-12-29T00:01:28;28.10;;;1.50;;
10721;SDS011;5412;59.450;18.124;2022-12-29T00:03:54;84.57;;;4.20;;
10721;SDS011;5412;59.450;18.124;2022-12-29T00:06:20;59.60;;;2.10;;
10721;SDS011;5412;59.450;18.124;2022-12-29T00:08:45;91.63;;;6.00;;
10721;SDS011;5412;59.450;18.124;2022-12-29T00:11:12;94.70;;;4.57;;
10721;SDS011;5412;59.450;18.124;2022-12-29T00:13:40;13.53;;;1.13;;
10721;SDS011;5412;59.450;18.124;2022-12-29T00:16:25;74.90;;;2.73;;
10721;SDS011;5412;59.450;18.124;2022-12-29T00:18:52;90.47;;;4.10;;
10721;SDS011;5412;59.450;18.124;2022-12-29T00:21:19;98.33;;;5.43;;
10721;SDS011;5412;59.450;18.124;2022-12-29T00:24:05;62.07;;;3.03;;
10721;SDS011;5412;59.450;18.124;2022-12-29T00:26:40;29.07;;;1.73;;
10721;SDS011;5412;59.450;18.124;2022-12-29T00:29:24;19.17;;;2.37;;
10721;SDS011;5412;59.450;18.124;2022-12-29T00:32:09;25.50;;;1.33;;
10721;SDS011;5412;59.450;18.124;2022-12-29T00:34:53;37.73;;;1.67;;
10721;SDS011;5412;59.450;18.124;2022-12-29T00:37:37;34.17;;;2.37;;
10721;SDS011;5412;59.450;18.124;2022-12-29T00:40:24;17.83;;;1.57;;
10721;SDS011;5412;59.450;18.124;2022-12-29T00:43:08;48.67;;;2.93;;
10721;SDS011;5412;59.450;18.124;2022-12-29T00:45:53;25.20;;;1.50;;
10721;SDS011;5412;59.450;18.124;2022-12-29T00:48:18;22.57;;;1.57;;
10721;SDS011;5412;59.450;18.124;2022-12-29T00:51:04;43.70;;;2.50;;
10721;SDS011;5412;59.450;18.124;2022-12-29T00:53:30;91.80;;;4.13;;
10721;SDS011;5412;59.450;18.124;2022-12-29T00:55:56;9.13;;;1.23;;
10721;SDS011;5412;59.450;18.124;2022-12-29T00:58:21;29.77;;;1.40;;
10721;SDS011;5412;59.450;18.124;2022-12-29T01:00:47;8.60;;;1.10;;
10721;SDS011;5412;59.450;18.124;2022-12-29T01:03:13;60.00;;;3.30;;
10721;SDS011;5412;59.450;18.124;2022-12-29T01:05:39;6.77;;;1.13;;
10721;SDS011;5412;59.450;18.124;2022-12-29T01:08:04;12.90;;;1.20;;
10721;SDS011;5412;59.450;18.124;2022-12-29T01:10:30;8.63;;;1.00;;
10721;SDS011;5412;59.450;18.124;2022-12-29T01:12:56;67.87;;;2.53;;
10721;SDS011;5412;59.450;18.124;2022-12-29T01:15:21;17.40;;;1.40;;
10721;SDS011;5412;59.450;18.124;2022-12-29T01:17:47;87.60;;;3.60;;
10721;SDS011;5412;59.450;18.124;2022-12-29T01:20:13;21.30;;;1.57;;
10721;SDS011;5412;59.450;18.124;2022-12-29T01:22:39;16.33;;;1.40;;
10721;SDS011;5412;59.450;18.124;2022-12-29T01:25:05;3.73;;;1.20;;
10721;SDS011;5412;59.450;18.124;2022-12-29T01:27:31;96.23;;;3.67;;
10721;SDS011;5412;59.450;18.124;2022-12-29T01:29:57;47.60;;;2.47;;
10721;SDS011;5412;59.450;18.124;2022-12-29T01:32:22;65.97;;;4.17;;
10721;SDS011;5412;59.450;18.124;2022-12-29T01:34:48;27.37;;;2.27;;
10721;SDS011;5412;59.450;18.124;2022-12-29T01:37:14;49.13;;;2.47;;
10721;SDS011;5412;59.450;18.124;2022-12-29T01:39:40;56.83;;;4.63;;
10721;SDS011;5412;59.450;18.124;2022-12-29T01:42:08;75.30;;;4.20;;
10721;SDS011;5412;59.450;18.124;2022-12-29T01:44:51;93.00;;;5.40;;
10721;SDS011;5412;59.450;18.124;2022-12-29T01:50:13;27.77;;;1.77;;
10721;SDS011;5412;59.450;18.124;2022-12-29T01:52:44;22.70;;;1.80;;
10721;SDS011;5412;59.450;18.124;2022-12-29T01:55:19;71.07;;;3.80;;
10721;SDS011;5412;59.450;18.124;2022-12-29T01:57:46;46.13;;;2.90;;
10721;SDS011;5412;59.450;18.124;2022-12-29T02:00:16;63.33;;;3.57;;
10721;SDS011;5412;59.450;18.124;2022-12-29T02:02:43;111.60;;;3.87;;
10721;SDS011;5412;59.450;18.124;2022-12-29T02:05:27;109.17;;;5.87;;
10721;SDS011;5412;59.450;18.124;2022-12-29T02:07:59;89.07;;;7.30;;
10721;SDS011;5412;59.450;18.124;2022-12-29T02:10:27;13.90;;;2.27;;
10721;SDS011;5412;59.450;18.124;2022-12-29T02:12:56;24.70;;;1.53;;
10721;SDS011;5412;59.450;18.124;2022-12-29T02:15:25;50.03;;;2.87;;
10721;SDS011;5412;59.450;18.124;2022-12-29T02:18:00;198.40;;;10.00;;
10721;SDS011;5412;59.450;18.124;2022-12-29T02:25:46;26.40;;;2.03;;
10721;SDS011;5412;59.450;18.124;2022-12-29T02:31:21;4.00;;;1.57;;
10721;SDS011;5412;59.450;18.124;2022-12-29T02:34:00;1.70;;;1.40;;
10721;SDS011;5412;59.450;18.124;2022-12-29T02:36:49;15.53;;;2.10;;
10721;SDS011;5412;59.450;18.124;2022-12-29T02:39:28;1.57;;;1.20;;
10721;SDS011;5412;59.450;18.124;2022-12-29T02:47:48;1.93;;;1.53;;
10721;SDS011;5412;59.450;18.124;2022-12-29T02:50:30;1.57;;;1.47;;
10721;SDS011;5412;59.450;18.124;2022-12-29T02:53:01;1.73;;;1.63;;
10721;SDS011;5412;59.450;18.124;2022-12-29T02:55:32;2.10;;;1.63;;
10721;SDS011;5412;59.450;18.124;2022-12-29T02:58:19;1.70;;;1.60;;
10721;SDS011;5412;59.450;18.124;2022-12-29T03:01:01;1.73;;;1.33;;
10721;SDS011;5412;59.450;18.124;2022-12-29T03:06:36;2.20;;;1.50;;
10721;SDS011;5412;59.450;18.124;2022-12-29T03:12:26;1.97;;;1.70;;
10721;SDS011;5412;59.450;18.124;2022-12-29T03:15:15;3.40;;;1.97;;
10721;SDS011;5412;59.450;18.124;2022-12-29T03:18:21;1.70;;;1.60;;
10721;SDS011;5412;59.450;18.124;2022-12-29T03:20:55;1.60;;;1.50;;
10721;SDS011;5412;59.450;18.124;2022-12-29T03:23:27;2.10;;;1.87;;
10721;SDS011;5412;59.450;18.124;2022-12-29T03:25:56;2.17;;;1.60;;
10721;SDS011;5412;59.450;18.124;2022-12-29T03:28:28;1.57;;;1.47;;
10721;SDS011;5412;59.450;18.124;2022-12-29T03:30:57;2.40;;;1.60;;
10721;SDS011;5412;59.450;18.124;2022-12-29T03:33:25;2.43;;;1.60;;
10721;SDS011;5412;59.450;18.124;2022-12-29T03:35:54;2.37;;;1.77;;
10721;SDS011;5412;59.450;18.124;2022-12-29T03:41:36;2.87;;;1.57;;
10721;SDS011;5412;59.450;18.124;2022-12-29T03:44:07;3.90;;;1.90;;
10721;SDS011;5412;59.450;18.124;2022-12-29T03:46:34;2.03;;;1.57;;
10721;SDS011;5412;59.450;18.124;2022-12-29T03:48:59;2.33;;;1.40;;
10721;SDS011;5412;59.450;18.124;2022-12-29T03:51:25;1.97;;;1.50;;
10721;SDS011;5412;59.450;18.124;2022-12-29T03:53:51;1.47;;;1.37;;
10721;SDS011;5412;59.450;18.124;2022-12-29T03:56:17;2.80;;;1.70;;
10721;SDS011;5412;59.450;18.124;2022-12-29T03:58:42;1.80;;;1.70;;
10721;SDS011;5412;59.450;18.124;2022-12-29T04:01:08;2.73;;;1.73;;
10721;SDS011;5412;59.450;18.124;2022-12-29T04:03:34;2.30;;;1.70;;
10721;SDS011;5412;59.450;18.124;2022-12-29T04:05:59;2.57;;;2.00;;
10721;SDS011;5412;59.450;18.124;2022-12-29T04:08:25;4.63;;;1.90;;
10721;SDS011;5412;59.450;18.124;2022-12-29T04:10:51;6.00;;;2.00;;
10721;SDS011;5412;59.450;18.124;2022-12-29T04:13:17;3.30;;;1.90;;
10721;SDS011;5412;59.450;18.124;2022-12-29T04:15:43;3.10;;;1.90;;
10721;SDS011;5412;59.450;18.124;2022-12-29T04:18:10;2.37;;;1.70;;
10721;SDS011;5412;59.450;18.124;2022-12-29T04:20:36;2.27;;;2.07;;
10721;SDS011;5412;59.450;18.124;2022-12-29T04:23:21;3.33;;;2.20;;
10721;SDS011;5412;59.450;18.124;2022-12-29T04:25:46;4.37;;;2.10;;
10721;SDS011;5412;59.450;18.124;2022-12-29T04:28:13;2.23;;;1.70;;
10721;SDS011;5412;59.450;18.124;2022-12-29T04:30:39;4.10;;;2.20;;
10721;SDS011;5412;59.450;18.124;2022-12-29T04:33:05;5.50;;;2.20;;
10721;SDS011;5412;59.450;18.124;2022-12-29T04:35:31;5.53;;;2.67;;
10721;SDS011;5412;59.450;18.124;2022-12-29T04:37:56;1.80;;;1.70;;
10721;SDS011;5412;59.450;18.124;2022-12-29T04:40:22;2.20;;;1.83;;
10721;SDS011;5412;59.450;18.124;2022-12-29T04:42:49;3.43;;;2.10;;
10721;SDS011;5412;59.450;18.124;2022-12-29T04:45:15;3.10;;;2.13;;
10721;SDS011;5412;59.450;18.124;2022-12-29T04:47:40;2.83;;;1.97;;
10721;SDS011;5412;59.450;18.124;2022-12-29T04:50:06;4.87;;;2.83;;
10721;SDS011;5412;59.450;18.124;2022-12-29T04:52:32;5.33;;;2.13;;
10721;SDS011;5412;59.450;18.124;2022-12-29T04:54:58;2.23;;;2.03;;
10721;SDS011;5412;59.450;18.124;2022-12-29T04:57:24;3.00;;;2.23;;
10721;SDS011;5412;59.450;18.124;2022-12-29T04:59:50;5.17;;;2.20;;
10721;SDS011;5412;59.450;18.124;2022-12-29T05:02:16;3.37;;;2.33;;
10721;SDS011;5412;59.450;18.124;2022-12-29T05:04:42;3.87;;;2.47;;
10721;SDS011;5412;59.450;18.124;2022-12-29T05:07:08;2.97;;;2.07;;
10721;SDS011;5412;59.450;18.124;2022-12-29T05:09:34;2.80;;;2.17;;
10721;SDS011;5412;59.450;18.124;2022-12-29T05:12:00;4.73;;;2.37;;
10721;SDS011;5412;59.450;18.124;2022-12-29T05:14:25;3.63;;;2.10;;
10721;SDS011;5412;59.450;18.124;2022-12-29T05:16:51;5.70;;;2.50;;
10721;SDS011;5412;59.450;18.124;2022-12-29T05:19:17;5.30;;;2.33;;
10721;SDS011;5412;59.450;18.124;2022-12-29T05:21:43;2.77;;;2.33;;
10721;SDS011;5412;59.450;18.124;2022-12-29T05:24:09;3.17;;;2.50;;
10721;SDS011;5412;59.450;18.124;2022-12-29T05:26:35;5.60;;;2.50;;
10721;SDS011;5412;59.450;18.124;2022-12-29T05:29:00;4.83;;;2.00;;
10721;SDS011;5412;59.450;18.124;2022-12-29T05:31:26;2.47;;;1.90;;
10721;SDS011;5412;59.450;18.124;2022-12-29T05:33:52;2.00;;;1.83;;
10721;SDS011;5412;59.450;18.124;2022-12-29T05:36:18;3.67;;;1.90;;
10721;SDS011;5412;59.450;18.124;2022-12-29T05:38:44;3.60;;;2.10;;
10721;SDS011;5412;59.450;18.124;2022-12-29T05:41:10;3.63;;;2.03;;
10721;SDS011;5412;59.450;18.124;2022-12-29T05:43:36;2.23;;;1.87;;
10721;SDS011;5412;59.450;18.124;2022-12-29T05:46:02;2.20;;;2.00;;
10721;SDS011;5412;59.450;18.124;2022-12-29T05:48:28;4.37;;;1.87;;
10721;SDS011;5412;59.450;18.124;2022-12-29T05:50:54;1.83;;;1.70;;
10721;SDS011;5412;59.450;18.124;2022-12-29T05:53:19;1.93;;;1.70;;
10721;SDS011;5412;59.450;18.124;2022-12-29T05:55:48;2.97;;;1.80;;
10721;SDS011;5412;59.450;18.124;2022-12-29T05:58:17;2.13;;;1.67;;
10721;SDS011;5412;59.450;18.124;2022-12-29T06:00:43;3.67;;;1.60;;
10721;SDS011;5412;59.450;18.124;2022-12-29T06:03:09;3.03;;;1.80;;
10721;SDS011;5412;59.450;18.124;2022-12-29T06:05:35;1.87;;;1.57;;
10721;SDS011;5412;59.450;18.124;2022-12-29T06:08:01;2.27;;;1.23;;
10721;SDS011;5412;59.450;18.124;2022-12-29T06:10:26;2.90;;;1.60;;
10721;SDS011;5412;59.450;18.124;2022-12-29T06:12:52;2.37;;;1.40;;
10721;SDS011;5412;59.450;18.124;2022-12-29T06:15:18;1.80;;;1.50;;
10721;SDS011;5412;59.450;18.124;2022-12-29T06:17:43;3.50;;;1.90;;
10721;SDS011;5412;59.450;18.124;2022-12-29T06:20:10;1.73;;;1.60;;
10721;SDS011;5412;59.450;18.124;2022-12-29T06:22:36;2.40;;;1.57;;
10721;SDS011;5412;59.450;18.124;2022-12-29T06:25:02;2.53;;;1.50;;
10721;SDS011;5412;59.450;18.124;2022-12-29T06:27:28;2.37;;;1.43;;
10721;SDS011;5412;59.450;18.124;2022-12-29T06:29:54;3.53;;;1.33;;
10721;SDS011;5412;59.450;18.124;2022-12-29T06:32:20;2.80;;;1.10;;
10721;SDS011;5412;59.450;18.124;2022-12-29T06:34:46;3.17;;;1.30;;
10721;SDS011;5412;59.450;18.124;2022-12-29T06:37:11;1.40;;;1.20;;
10721;SDS011;5412;59.450;18.124;2022-12-29T06:39:38;1.57;;;1.30;;
10721;SDS011;5412;59.450;18.124;2022-12-29T06:42:04;4.73;;;1.43;;
10721;SDS011;5412;59.450;18.124;2022-12-29T06:44:29;2.17;;;1.37;;
10721;SDS011;5412;59.450;18.124;2022-12-29T06:46:55;2.60;;;1.23;;
10721;SDS011;5412;59.450;18.124;2022-12-29T06:49:22;4.40;;;1.60;;
10721;SDS011;5412;59.450;18.124;2022-12-29T06:51:48;2.67;;;1.50;;
10721;SDS011;5412;59.450;18.124;2022-12-29T06:54:14;3.53;;;1.30;;
10721;SDS011;5412;59.450;18.124;2022-12-29T06:56:39;2.00;;;1.40;;
10721;SDS011;5412;59.450;18.124;2022-12-29T06:59:05;3.13;;;1.40;;
10721;SDS011;5412;59.450;18.124;2022-12-29T07:01:31;1.80;;;1.57;;
10721;SDS011;5412;59.450;18.124;2022-12-29T07:03:57;3.27;;;2.00;;
10721;SDS011;5412;59.450;18.124;2022-12-29T07:06:23;3.90;;;1.80;;
10721;SDS011;5412;59.450;18.124;2022-12-29T07:08:48;4.33;;;2.00;;
10721;SDS011;5412;59.450;18.124;2022-12-29T07:11:14;8.87;;;2.40;;
10721;SDS011;5412;59.450;18.124;2022-12-29T07:13:40;5.93;;;2.33;;
10721;SDS011;5412;59.450;18.124;2022-12-29T07:16:06;11.80;;;3.33;;
10721;SDS011;5412;59.450;18.124;2022-12-29T07:18:33;9.93;;;3.27;;
10721;SDS011;5412;59.450;18.124;2022-12-29T07:20:59;45.30;;;4.17;;
10721;SDS011;5412;59.450;18.124;2022-12-29T07:23:25;62.00;;;6.43;;
10721;SDS011;5412;59.450;18.124;2022-12-29T07:26:01;28.90;;;4.77;;
10721;SDS011;5412;59.450;18.124;2022-12-29T07:28:29;26.97;;;3.67;;
10721;SDS011;5412;59.450;18.124;2022-12-29T07:30:55;19.40;;;3.43;;
10721;SDS011;5412;59.450;18.124;2022-12-29T07:33:21;24.27;;;4.00;;
10721;SDS011;5412;59.450;18.124;2022-12-29T07:35:46;54.57;;;4.43;;
10721;SDS011;5412;59.450;18.124;2022-12-29T07:38:12;54.87;;;5.00;;
10721;SDS011;5412;59.450;18.124;2022-12-29T07:40:38;33.00;;;3.80;;
10721;SDS011;5412;59.450;18.124;2022-12-29T07:43:04;56.27;;;5.47;;
10721;SDS011;5412;59.450;18.124;2022-12-29T07:45:30;91.43;;;6.30;;
10721;SDS011;5412;59.450;18.124;2022-12-29T07:47:55;48.23;;;5.03;;
10721;SDS011;5412;59.450;18.124;2022-12-29T07:50:21;126.90;;;7.50;;
10721;SDS011;5412;59.450;18.124;2022-12-29T07:52:47;45.90;;;4.70;;
10721;SDS011;5412;59.450;18.124;2022-12-29T07:55:13;78.77;;;6.70;;
10721;SDS011;5412;59.450;18.124;2022-12-29T07:57:40;19.43;;;3.53;;
10721;SDS011;5412;59.450;18.124;2022-12-29T08:00:06;22.77;;;3.97;;
10721;SDS011;5412;59.450;18.124;2022-12-29T08:02:32;43.20;;;4.83;;
10721;SDS011;5412;59.450;18.124;2022-12-29T08:04:58;38.40;;;4.63;;
10721;SDS011;5412;59.450;18.124;2022-12-29T08:07:24;31.87;;;4.47;;
10721;SDS011;5412;59.450;18.124;2022-12-29T08:09:49;61.67;;;5.37;;
10721;SDS011;5412;59.450;18.124;2022-12-29T08:12:15;34.83;;;4.43;;
10721;SDS011;5412;59.450;18.124;2022-12-29T08:14:41;31.70;;;4.23;;
10721;SDS011;5412;59.450;18.124;2022-12-29T08:17:07;137.37;;;8.33;;
10721;SDS011;5412;59.450;18.124;2022-12-29T08:19:33;43.03;;;4.17;;
10721;SDS011;5412;59.450;18.124;2022-12-29T08:21:58;20.40;;;3.23;;
10721;SDS011;5412;59.450;18.124;2022-12-29T08:24:24;36.50;;;4.20;;
10721;SDS011;5412;59.450;18.124;2022-12-29T08:26:50;9.40;;;4.07;;
10721;SDS011;5412;59.450;18.124;2022-12-29T08:29:16;17.10;;;3.53;;
10721;SDS011;5412;59.450;18.124;2022-12-29T08:31:41;15.93;;;4.17;;
10721;SDS011;5412;59.450;18.124;2022-12-29T08:34:08;6.70;;;3.03;;
10721;SDS011;5412;59.450;18.124;2022-12-29T08:36:33;42.90;;;5.23;;
10721;SDS011;5412;59.450;18.124;2022-12-29T08:38:59;10.73;;;3.27;;
10721;SDS011;5412;59.450;18.124;2022-12-29T08:41:25;62.97;;;5.63;;
10721;SDS011;5412;59.450;18.124;2022-12-29T08:43:51;46.83;;;4.77;;
10721;SDS011;5412;59.450;18.124;2022-12-29T08:46:16;18.23;;;3.63;;
10721;SDS011;5412;59.450;18.124;2022-12-29T08:48:42;22.63;;;3.73;;
10721;SDS011;5412;59.450;18.124;2022-12-29T08:51:08;11.73;;;3.37;;
10721;SDS011;5412;59.450;18.124;2022-12-29T08:53:34;6.57;;;2.80;;
10721;SDS011;5412;59.450;18.124;2022-12-29T08:56:00;8.90;;;3.40;;
10721;SDS011;5412;59.450;18.124;2022-12-29T08:58:27;12.83;;;3.40;;
10721;SDS011;5412;59.450;18.124;2022-12-29T09:00:53;10.50;;;4.03;;
10721;SDS011;5412;59.450;18.124;2022-12-29T09:03:20;23.17;;;4.70;;
10721;SDS011;5412;59.450;18.124;2022-12-29T09:05:50;45.57;;;4.27;;
10721;SDS011;5412;59.450;18.124;2022-12-29T09:08:17;32.37;;;4.27;;
10721;SDS011;5412;59.450;18.124;2022-12-29T09:10:44;5.90;;;3.27;;
10721;SDS011;5412;59.450;18.124;2022-12-29T09:13:11;3.30;;;2.60;;
10721;SDS011;5412;59.450;18.124;2022-12-29T09:15:37;5.53;;;2.60;;
10721;SDS011;5412;59.450;18.124;2022-12-29T09:18:04;5.83;;;2.83;;
10721;SDS011;5412;59.450;18.124;2022-12-29T09:20:31;3.90;;;2.20;;
10721;SDS011;5412;59.450;18.124;2022-12-29T09:22:56;5.27;;;2.00;;
10721;SDS011;5412;59.450;18.124;2022-12-29T09:25:22;3.10;;;1.97;;
10721;SDS011;5412;59.450;18.124;2022-12-29T09:27:49;4.57;;;1.77;;
10721;SDS011;5412;59.450;18.124;2022-12-29T09:30:17;2.70;;;1.47;;
10721;SDS011;5412;59.450;18.124;2022-12-29T09:32:44;2.13;;;1.40;;
10721;SDS011;5412;59.450;18.124;2022-12-29T09:35:09;2.77;;;1.40;;
10721;SDS011;5412;59.450;18.124;2022-12-29T09:37:35;1.20;;;1.10;;
10721;SDS011;5412;59.450;18.124;2022-12-29T09:40:02;2.53;;;1.20;;
10721;SDS011;5412;59.450;18.124;2022-12-29T09:42:35;3.37;;;1.03;;
10721;SDS011;5412;59.450;18.124;2022-12-29T09:45:25;1.67;;;1.20;;
10721;SDS011;5412;59.450;18.124;2022-12-29T09:48:07;1.17;;;0.93;;
10721;SDS011;5412;59.450;18.124;2022-12-29T09:50:41;0.93;;;0.80;;
10721;SDS011;5412;59.450;18.124;2022-12-29T09:53:15;0.67;;;0.67;;
10721;SDS011;5412;59.450;18.124;2022-12-29T09:55:52;0.90;;;0.87;;
10721;SDS011;5412;59.450;18.124;2022-12-29T10:01:17;1.10;;;1.00;;
10721;SDS011;5412;59.450;18.124;2022-12-29T10:04:03;0.70;;;0.70;;
10721;SDS011;5412;59.450;18.124;2022-12-29T10:09:08;0.70;;;0.70;;
10721;SDS011;5412;59.450;18.124;2022-12-29T10:14:29;1.07;;;0.97;;
10721;SDS011;5412;59.450;18.124;2022-12-29T10:20:28;1.40;;;0.90;;
10721;SDS011;5412;59.450;18.124;2022-12-29T10:25:28;4.27;;;1.77;;
10721;SDS011;5412;59.450;18.124;2022-12-29T10:27:57;1.30;;;0.90;;
10721;SDS011;5412;59.450;18.124;2022-12-29T10:30:27;2.57;;;1.00;;
10721;SDS011;5412;59.450;18.124;2022-12-29T10:32:58;1.73;;;0.93;;
10721;SDS011;5412;59.450;18.124;2022-12-29T10:35:33;2.37;;;1.30;;
10721;SDS011;5412;59.450;18.124;2022-12-29T10:38:12;1.10;;;0.97;;
10721;SDS011;5412;59.450;18.124;2022-12-29T10:43:47;2.80;;;1.07;;
10721;SDS011;5412;59.450;18.124;2022-12-29T10:46:21;1.77;;;1.17;;
10721;SDS011;5412;59.450;18.124;2022-12-29T10:48:52;1.60;;;1.00;;
10721;SDS011;5412;59.450;18.124;2022-12-29T10:51:21;1.43;;;1.10;;
10721;SDS011;5412;59.450;18.124;2022-12-29T10:56:39;1.67;;;1.20;;
10721;SDS011;5412;59.450;18.124;2022-12-29T11:07:25;1.00;;;0.90;;
10721;SDS011;5412;59.450;18.124;2022-12-29T11:09:51;0.60;;;0.60;;
10721;SDS011;5412;59.450;18.124;2022-12-29T11:14:46;1.10;;;0.90;;
10721;SDS011;5412;59.450;18.124;2022-12-29T11:17:16;1.00;;;0.90;;
10721;SDS011;5412;59.450;18.124;2022-12-29T11:19:43;0.63;;;0.63;;
10721;SDS011;5412;59.450;18.124;2022-12-29T11:22:13;1.13;;;0.90;;
10721;SDS011;5412;59.450;18.124;2022-12-29T11:24:46;1.53;;;0.80;;
10721;SDS011;5412;59.450;18.124;2022-12-29T11:27:23;1.10;;;0.83;;
10721;SDS011;5412;59.450;18.124;2022-12-29T11:29:50;1.70;;;0.87;;
10721;SDS011;5412;59.450;18.124;2022-12-29T11:32:21;1.13;;;0.90;;
10721;SDS011;5412;59.450;18.124;2022-12-29T11:34:51;1.47;;;0.90;;
10721;SDS011;5412;59.450;18.124;2022-12-29T11:37:18;2.50;;;0.70;;
10721;SDS011;5412;59.450;18.124;2022-12-29T11:39:57;0.70;;;0.70;;
10721;SDS011;5412;59.450;18.124;2022-12-29T11:42:38;2.03;;;0.70;;
10721;SDS011;5412;59.450;18.124;2022-12-29T11:45:12;0.73;;;0.73;;
10721;SDS011;5412;59.450;18.124;2022-12-29T11:47:45;1.00;;;0.80;;
10721;SDS011;5412;59.450;18.124;2022-12-29T11:50:20;0.97;;;0.60;;
10721;SDS011;5412;59.450;18.124;2022-12-29T11:52:58;1.17;;;0.87;;
10721;SDS011;5412;59.450;18.124;2022-12-29T11:55:27;0.77;;;0.77;;
10721;SDS011;5412;59.450;18.124;2022-12-29T11:57:55;0.60;;;0.60;;
10721;SDS011;5412;59.450;18.124;2022-12-29T12:00:23;1.30;;;0.97;;
10721;SDS011;5412;59.450;18.124;2022-12-29T12:03:00;15.80;;;12.07;;
10721;SDS011;5412;59.450;18.124;2022-12-29T12:05:48;1.20;;;1.10;;
10721;SDS011;5412;59.450;18.124;2022-12-29T12:11:24;1.03;;;0.97;;
10721;SDS011;5412;59.450;18.124;2022-12-29T12:16:49;1.60;;;0.80;;
10721;SDS011;5412;59.450;18.124;2022-12-29T12:19:32;0.83;;;0.83;;
10721;SDS011;5412;59.450;18.124;2022-12-29T12:24:48;1.47;;;1.00;;
10721;SDS011;5412;59.450;18.124;2022-12-29T12:30:12;0.70;;;0.70;;
10721;SDS011;5412;59.450;18.124;2022-12-29T12:32:52;1.60;;;0.93;;
10721;SDS011;5412;59.450;18.124;2022-12-29T12:35:34;0.97;;;0.87;;
10721;SDS011;5412;59.450;18.124;2022-12-29T12:38:31;1.70;;;1.00;;
10721;SDS011;5412;59.450;18.124;2022-12-29T12:48:57;1.13;;;0.93;;
10721;SDS011;5412;59.450;18.124;2022-12-29T13:00:01;1.50;;;0.77;;
10721;SDS011;5412;59.450;18.124;2022-12-29T13:03:32;0.60;;;0.60;;
10721;SDS011;5412;59.450;18.124;2022-12-29T13:11:18;1.13;;;0.73;;
10721;SDS011;5412;59.450;18.124;2022-12-29T13:17:03;2.00;;;0.90;;
10721;SDS011;5412;59.450;18.124;2022-12-29T13:19:41;2.13;;;0.90;;
10721;SDS011;5412;59.450;18.124;2022-12-29T13:22:50;1.20;;;1.10;;
10721;SDS011;5412;59.450;18.124;2022-12-29T13:31:04;0.80;;;0.80;;
10721;SDS011;5412;59.450;18.124;2022-12-29T13:39:21;1.70;;;1.00;;
10721;SDS011;5412;59.450;18.124;2022-12-29T13:41:54;2.70;;;1.20;;
10721;SDS011;5412;59.450;18.124;2022-12-29T13:44:25;2.13;;;1.07;;
10721;SDS011;5412;59.450;18.124;2022-12-29T13:46:55;1.33;;;1.10;;
10721;SDS011;5412;59.450;18.124;2022-12-29T13:49:23;1.70;;;1.20;;
10721;SDS011;5412;59.450;18.124;2022-12-29T13:57:08;1.10;;;1.00;;
10721;SDS011;5412;59.450;18.124;2022-12-29T13:59:58;2.20;;;1.00;;
10721;SDS011;5412;59.450;18.124;2022-12-29T14:02:50;3.73;;;1.00;;
10721;SDS011;5412;59.450;18.124;2022-12-29T14:05:29;0.93;;;0.90;;
10721;SDS011;5412;59.450;18.124;2022-12-29T14:07:57;1.43;;;1.10;;
10721;SDS011;5412;59.450;18.124;2022-12-29T14:10:37;0.93;;;0.93;;
10721;SDS011;5412;59.450;18.124;2022-12-29T14:13:15;0.70;;;0.70;;
10721;SDS011;5412;59.450;18.124;2022-12-29T14:15:58;0.73;;;0.73;;
10721;SDS011;5412;59.450;18.124;2022-12-29T14:18:28;1.00;;;0.97;;
10721;SDS011;5412;59.450;18.124;2022-12-29T14:21:00;2.47;;;1.10;;
10721;SDS011;5412;59.450;18.124;2022-12-29T14:23:44;1.10;;;1.00;;
10721;SDS011;5412;59.450;18.124;2022-12-29T14:29:15;1.43;;;1.10;;
10721;SDS011;5412;59.450;18.124;2022-12-29T14:31:54;1.27;;;1.10;;
10721;SDS011;5412;59.450;18.124;2022-12-29T14:39:42;0.80;;;0.80;;
10721;SDS011;5412;59.450;18.124;2022-12-29T14:47:22;1.30;;;1.00;;
10721;SDS011;5412;59.450;18.124;2022-12-29T14:50:18;2.83;;;1.10;;
10721;SDS011;5412;59.450;18.124;2022-12-29T14:53:02;1.57;;;1.07;;
10721;SDS011;5412;59.450;18.124;2022-12-29T14:55:46;1.73;;;1.20;;
10721;SDS011;5412;59.450;18.124;2022-12-29T14:58:28;1.20;;;1.10;;
10721;SDS011;5412;59.450;18.124;2022-12-29T15:01:14;1.63;;;1.20;;
10721;SDS011;5412;59.450;18.124;2022-12-29T15:03:59;2.00;;;1.10;;
10721;SDS011;5412;59.450;18.124;2022-12-29T15:06:30;3.07;;;1.90;;
10721;SDS011;5412;59.450;18.124;2022-12-29T15:09:03;1.97;;;1.60;;
10721;SDS011;5412;59.450;18.124;2022-12-29T15:14:01;2.10;;;1.90;;
10721;SDS011;5412;59.450;18.124;2022-12-29T15:16:32;2.20;;;2.03;;
10721;SDS011;5412;59.450;18.124;2022-12-29T15:19:00;1.80;;;1.70;;
10721;SDS011;5412;59.450;18.124;2022-12-29T15:21:33;5.20;;;2.30;;
10721;SDS011;5412;59.450;18.124;2022-12-29T15:24:00;4.03;;;2.50;;
10721;SDS011;5412;59.450;18.124;2022-12-29T15:26:41;3.90;;;2.20;;
10721;SDS011;5412;59.450;18.124;2022-12-29T15:29:43;4.43;;;2.97;;
10721;SDS011;5412;59.450;18.124;2022-12-29T15:32:17;3.70;;;3.37;;
10721;SDS011;5412;59.450;18.124;2022-12-29T15:34:46;4.50;;;3.40;;
10721;SDS011;5412;59.450;18.124;2022-12-29T15:37:19;3.60;;;3.20;;
10721;SDS011;5412;59.450;18.124;2022-12-29T15:39:47;4.70;;;3.33;;
10721;SDS011;5412;59.450;18.124;2022-12-29T15:45:11;4.90;;;3.20;;
10721;SDS011;5412;59.450;18.124;2022-12-29T15:47:38;9.10;;;4.07;;
10721;SDS011;5412;59.450;18.124;2022-12-29T15:50:19;5.03;;;3.50;;
10721;SDS011;5412;59.450;18.124;2022-12-29T15:52:51;4.07;;;3.50;;
10721;SDS011;5412;59.450;18.124;2022-12-29T15:55:21;5.67;;;3.27;;
10721;SDS011;5412;59.450;18.124;2022-12-29T15:57:58;3.77;;;3.20;;
10721;SDS011;5412;59.450;18.124;2022-12-29T16:00:32;5.03;;;3.30;;
10721;SDS011;5412;59.450;18.124;2022-12-29T16:03:02;4.70;;;3.07;;
10721;SDS011;5412;59.450;18.124;2022-12-29T16:05:38;2.67;;;2.47;;
10721;SDS011;5412;59.450;18.124;2022-12-29T16:08:22;4.47;;;3.17;;
10721;SDS011;5412;59.450;18.124;2022-12-29T16:10:54;4.73;;;3.00;;
10721;SDS011;5412;59.450;18.124;2022-12-29T16:13:25;6.50;;;2.77;;
10721;SDS011;5412;59.450;18.124;2022-12-29T16:15:56;3.43;;;2.70;;
10721;SDS011;5412;59.450;18.124;2022-12-29T16:18:46;4.50;;;2.60;;
10721;SDS011;5412;59.450;18.124;2022-12-29T16:21:19;6.33;;;3.00;;
10721;SDS011;5412;59.450;18.124;2022-12-29T16:23:52;5.37;;;2.60;;
10721;SDS011;5412;59.450;18.124;2022-12-29T16:26:21;3.47;;;2.70;;
10721;SDS011;5412;59.450;18.124;2022-12-29T16:28:50;3.30;;;2.27;;
10721;SDS011;5412;59.450;18.124;2022-12-29T16:31:24;3.30;;;2.47;;
10721;SDS011;5412;59.450;18.124;2022-12-29T16:33:58;3.87;;;2.60;;
10721;SDS011;5412;59.450;18.124;2022-12-29T16:36:57;2.23;;;2.00;;
10721;SDS011;5412;59.450;18.124;2022-12-29T16:39:37;3.63;;;1.90;;
10721;SDS011;5412;59.450;18.124;2022-12-29T16:47:47;2.80;;;1.93;;
10721;SDS011;5412;59.450;18.124;2022-12-29T16:50:18;19.30;;;11.73;;
10721;SDS011;5412;59.450;18.124;2022-12-29T16:52:48;2.47;;;2.07;;
10721;SDS011;5412;59.450;18.124;2022-12-29T16:55:18;2.53;;;2.10;;
10721;SDS011;5412;59.450;18.124;2022-12-29T16:57:45;4.77;;;2.17;;
10721;SDS011;5412;59.450;18.124;2022-12-29T17:00:20;2.80;;;2.57;;
10721;SDS011;5412;59.450;18.124;2022-12-29T17:02:54;6.17;;;2.63;;
10721;SDS011;5412;59.450;18.124;2022-12-29T17:05:22;2.93;;;2.13;;
10721;SDS011;5412;59.450;18.124;2022-12-29T17:07:48;4.93;;;2.73;;
10721;SDS011;5412;59.450;18.124;2022-12-29T17:10:14;5.27;;;2.30;;
10721;SDS011;5412;59.450;18.124;2022-12-29T17:12:40;4.50;;;2.50;;
10721;SDS011;5412;59.450;18.124;2022-12-29T17:15:29;4.67;;;2.10;;
10721;SDS011;5412;59.450;18.124;2022-12-29T17:17:57;5.90;;;3.00;;
10721;SDS011;5412;59.450;18.124;2022-12-29T17:20:28;3.47;;;2.90;;